createdAt,value
2019-04-11T00:00:50.466Z,1.90
2019-04-11T00:03:19.491Z,1.80
2019-04-11T00:05:48.025Z,1.80
2019-04-11T00:08:17.503Z,1.70
2019-04-11T00:10:47.043Z,1.70
2019-04-11T00:13:21.594Z,1.70
2019-04-11T00:15:45.753Z,1.70
2019-04-11T00:18:14.455Z,1.70
2019-04-11T00:20:42.920Z,1.80
2019-04-11T00:23:12.196Z,1.70
2019-04-11T00:25:41.965Z,1.70
2019-04-11T00:28:10.528Z,1.70
2019-04-11T00:30:40.011Z,1.70
2019-04-11T00:33:09.733Z,1.70
2019-04-11T00:35:38.319Z,1.70
2019-04-11T00:38:07.743Z,1.70
2019-04-11T00:40:37.355Z,1.60
2019-04-11T00:43:05.948Z,1.50
2019-04-11T00:45:35.906Z,1.50
2019-04-11T00:48:04.396Z,1.60
2019-04-11T00:50:32.919Z,1.50
2019-04-11T00:53:01.540Z,1.50
2019-04-11T00:55:30.004Z,1.40
2019-04-11T00:57:58.539Z,1.40
2019-04-11T01:00:27.107Z,1.40
2019-04-11T01:02:55.915Z,1.30
2019-04-11T01:05:25.539Z,1.40
2019-04-11T01:07:55.444Z,1.30
2019-04-11T01:10:24.564Z,1.30
2019-04-11T01:12:53.264Z,1.30
2019-04-11T01:15:23.815Z,1.30
2019-04-11T01:17:52.406Z,1.20
2019-04-11T01:20:21.584Z,1.20
2019-04-11T01:22:50.806Z,1.20
2019-04-11T01:25:20.121Z,1.20
2019-04-11T01:27:48.669Z,1.20
2019-04-11T01:30:19.498Z,1.20
2019-04-11T01:32:48.659Z,1.20
2019-04-11T01:35:17.300Z,1.20
2019-04-11T01:37:46.152Z,1.10
2019-04-11T01:40:15.788Z,1.00
2019-04-11T01:42:44.296Z,1.10
2019-04-11T01:45:13.766Z,1.00
2019-04-11T01:47:44.784Z,1.00
2019-04-11T01:50:14.960Z,1.00
2019-04-11T01:52:44.540Z,0.90
2019-04-11T01:55:14.319Z,0.80
2019-04-11T01:57:43.569Z,0.80
2019-04-11T02:00:17.648Z,0.80
2019-04-11T02:02:57.024Z,0.80
2019-04-11T02:05:27.555Z,0.80
2019-04-11T02:07:55.981Z,0.80
2019-04-11T02:10:24.549Z,0.80
2019-04-11T02:12:53.258Z,0.70
2019-04-11T02:15:22.464Z,0.70
2019-04-11T02:17:50.976Z,0.70
2019-04-11T02:20:19.419Z,0.80
2019-04-11T02:22:50.706Z,0.80
2019-04-11T02:25:32.948Z,0.70
2019-04-11T02:28:03.016Z,0.80
2019-04-11T02:30:36.268Z,0.60
2019-04-11T02:33:07.239Z,0.50
2019-04-11T02:35:37.336Z,0.40
2019-04-11T02:38:14.046Z,0.40
2019-04-11T02:40:43.031Z,0.40
2019-04-11T02:43:13.317Z,0.40
2019-04-11T02:45:52.583Z,0.30
2019-04-11T02:48:13.769Z,0.10
2019-04-11T02:50:43.508Z,0.10
2019-04-11T02:53:14.812Z,0.10
2019-04-11T02:55:44.354Z,0.10
2019-04-11T02:58:14.564Z,0.10
2019-04-11T03:00:44.862Z,0.20
2019-04-11T03:03:15.066Z,0.20
2019-04-11T03:05:46.331Z,0.20
2019-04-11T03:08:17.962Z,0.30
2019-04-11T03:10:45.973Z,0.30
2019-04-11T03:13:14.773Z,0.20
2019-04-11T03:16:02.099Z,0.20
2019-04-11T03:18:33.270Z,0.20
2019-04-11T03:20:52.297Z,0.20
2019-04-11T03:23:18.106Z,0.20
2019-04-11T03:25:45.019Z,0.20
2019-04-11T03:28:19.235Z,0.20
2019-04-11T03:31:03.827Z,0.20
2019-04-11T03:34:01.290Z,0.20
2019-04-11T03:36:37.472Z,0.20
2019-04-11T03:38:36.961Z,0.20
2019-04-11T03:41:08.722Z,0.10
2019-04-11T03:43:30.258Z,0.10
2019-04-11T03:46:05.294Z,0.10
2019-04-11T03:48:29.275Z,0.20
2019-04-11T03:50:46.777Z,0.10
2019-04-11T03:53:19.426Z,0.10
2019-04-11T03:55:49.450Z,0.00
2019-04-11T03:58:21.780Z,0.10
2019-04-11T04:00:53.456Z,0.00
2019-04-11T04:03:22.451Z,0.00
2019-04-11T04:05:52.847Z,-0.10
2019-04-11T04:08:22.476Z,-0.10
2019-04-11T04:11:06.078Z,-0.10
2019-04-11T04:13:36.929Z,-0.10
2019-04-11T04:16:27.382Z,-0.10
2019-04-11T04:18:51.898Z,-0.10
2019-04-11T04:21:40.755Z,-0.10
2019-04-11T04:24:27.458Z,-0.10
2019-04-11T04:26:59.722Z,0.00
2019-04-11T04:29:29.441Z,-0.10
2019-04-11T04:31:59.500Z,-0.20
2019-04-11T04:34:28.508Z,0.00
2019-04-11T04:36:57.894Z,0.00
2019-04-11T04:39:27.364Z,-0.10
2019-04-11T04:42:06.049Z,0.00
2019-04-11T04:44:27.261Z,0.10
2019-04-11T04:47:10.593Z,0.10
2019-04-11T04:49:27.924Z,0.10
2019-04-11T04:51:56.213Z,0.00
2019-04-11T04:54:24.702Z,0.20
2019-04-11T04:56:54.461Z,0.20
2019-04-11T04:59:23.649Z,0.30
2019-04-11T05:01:53.335Z,0.30
2019-04-11T05:04:23.503Z,0.30
2019-04-11T05:06:53.037Z,0.40
2019-04-11T05:09:23.557Z,0.50
2019-04-11T05:11:53.073Z,0.60
2019-04-11T05:14:23.189Z,0.80
2019-04-11T05:16:52.579Z,1.10
2019-04-11T05:19:22.166Z,1.20
2019-04-11T05:21:51.997Z,1.40
2019-04-11T05:24:20.842Z,1.50
2019-04-11T05:26:50.330Z,1.70
2019-04-11T05:29:19.561Z,1.70
2019-04-11T05:31:49.128Z,2.00
2019-04-11T05:34:18.283Z,2.20
2019-04-11T05:36:47.348Z,2.10
2019-04-11T05:39:18.162Z,2.10
2019-04-11T05:41:47.116Z,2.10
2019-04-11T05:44:16.733Z,2.10
2019-04-11T05:46:52.346Z,2.00
2019-04-11T05:49:21.657Z,2.00
2019-04-11T05:52:01.940Z,2.00
2019-04-11T05:54:36.446Z,2.30
2019-04-11T05:57:05.092Z,2.30
2019-04-11T05:59:34.723Z,2.30
2019-04-11T06:02:07.620Z,2.30
2019-04-11T06:04:36.813Z,2.30
2019-04-11T06:07:13.108Z,2.30
2019-04-11T06:09:44.120Z,2.40
2019-04-11T06:12:23.996Z,2.40
2019-04-11T06:14:54.084Z,2.20
2019-04-11T06:17:23.870Z,2.40
2019-04-11T06:20:11.147Z,2.40
2019-04-11T06:22:42.184Z,2.40
2019-04-11T06:25:30.216Z,2.40
2019-04-11T06:28:00.113Z,2.40
2019-04-11T06:30:48.562Z,2.70
2019-04-11T06:33:22.624Z,3.30
2019-04-11T06:35:56.637Z,4.20
2019-04-11T06:38:30.316Z,5.40
2019-04-11T06:41:00.587Z,5.50
2019-04-11T06:43:36.811Z,5.20
2019-04-11T06:46:09.693Z,4.80
2019-04-11T06:48:45.735Z,4.30
2019-04-11T06:51:32.493Z,4.20
2019-04-11T06:54:17.489Z,4.10
2019-04-11T06:56:47.633Z,4.30
2019-04-11T06:59:20.639Z,4.40
2019-04-11T07:01:49.163Z,4.10
2019-04-11T07:04:25.340Z,4.30
2019-04-11T07:06:55.882Z,4.60
2019-04-11T07:09:28.784Z,4.60
2019-04-11T07:11:59.277Z,4.70
2019-04-11T07:14:38.335Z,4.80
2019-04-11T07:17:24.734Z,4.90
2019-04-11T07:20:10.809Z,5.10
2019-04-11T07:22:57.534Z,5.30
2019-04-11T07:25:28.869Z,5.20
2019-04-11T07:27:59.418Z,5.40
2019-04-11T07:30:46.009Z,5.80
2019-04-11T07:33:16.089Z,5.80
2019-04-11T07:35:52.904Z,5.90
2019-04-11T07:38:34.434Z,6.30
2019-04-11T07:41:04.571Z,6.10
2019-04-11T07:43:33.536Z,6.20
2019-04-11T07:46:12.698Z,6.30
2019-04-11T07:48:42.495Z,6.90
2019-04-11T07:51:13.204Z,7.60
2019-04-11T07:53:43.716Z,7.50
2019-04-11T07:56:13.866Z,7.70
2019-04-11T07:58:47.873Z,7.90
2019-04-11T08:01:19.000Z,7.70
2019-04-11T08:04:07.321Z,7.20
2019-04-11T08:06:46.368Z,7.30
2019-04-11T08:09:17.634Z,7.40
2019-04-11T08:11:54.023Z,7.10
2019-04-11T08:14:26.883Z,6.70
2019-04-11T08:16:57.459Z,6.90
2019-04-11T08:19:43.831Z,7.70
2019-04-11T08:22:32.871Z,7.60
2019-04-11T08:25:19.051Z,8.50
2019-04-11T08:27:59.264Z,8.30
2019-04-11T08:30:24.711Z,8.30
2019-04-11T08:32:58.236Z,7.80
2019-04-11T08:35:33.198Z,8.00
2019-04-11T08:38:10.131Z,8.10
2019-04-11T08:40:56.112Z,8.80
2019-04-11T08:43:26.907Z,8.80
2019-04-11T08:45:58.191Z,9.90
2019-04-11T08:48:28.861Z,10.40
2019-04-11T08:51:08.644Z,11.50
2019-04-11T08:53:45.360Z,11.40
2019-04-11T08:56:16.095Z,11.30
2019-04-11T08:59:11.534Z,11.80
2019-04-11T09:01:40.265Z,13.10
2019-04-11T09:04:28.578Z,12.00
2019-04-11T09:06:58.404Z,11.00
2019-04-11T09:09:29.392Z,11.40
2019-04-11T09:12:00.457Z,10.80
2019-04-11T09:14:40.053Z,10.40
2019-04-11T09:17:14.114Z,9.30
2019-04-11T09:19:49.329Z,8.60
2019-04-11T09:22:20.487Z,8.20
2019-04-11T09:25:03.403Z,8.20
2019-04-11T09:27:45.316Z,8.00
2019-04-11T09:30:16.355Z,8.10
2019-04-11T09:33:04.742Z,8.90
2019-04-11T09:35:35.328Z,9.30
2019-04-11T09:38:10.870Z,8.60
2019-04-11T09:40:41.682Z,8.40
2019-04-11T09:43:26.600Z,8.10
2019-04-11T09:46:02.393Z,7.80
2019-04-11T09:48:48.248Z,7.40
2019-04-11T09:51:18.467Z,7.30
2019-04-11T09:53:48.611Z,7.40
2019-04-11T09:56:18.665Z,7.60
2019-04-11T09:58:49.708Z,7.60
2019-04-11T10:01:37.096Z,7.80
2019-04-11T10:04:06.519Z,8.10
2019-04-11T10:06:51.465Z,8.10
2019-04-11T10:09:21.955Z,8.10
2019-04-11T10:12:08.540Z,7.80
2019-04-11T10:14:37.699Z,8.20
2019-04-11T10:17:08.676Z,8.00
2019-04-11T10:19:38.267Z,8.40
2019-04-11T10:22:15.104Z,8.50
2019-04-11T10:25:01.002Z,8.70
2019-04-11T10:27:31.171Z,8.50
2019-04-11T10:30:17.484Z,8.30
2019-04-11T10:33:02.364Z,8.50
2019-04-11T10:35:34.889Z,9.90
2019-04-11T10:38:05.617Z,10.30
2019-04-11T10:40:52.432Z,9.70
2019-04-11T10:43:20.940Z,9.70
2019-04-11T10:46:07.201Z,9.30
2019-04-11T10:48:53.411Z,8.70
2019-04-11T10:51:26.459Z,8.30
2019-04-11T10:53:57.536Z,7.70
2019-04-11T10:56:39.705Z,7.70
2019-04-11T10:59:09.159Z,7.40
2019-04-11T11:01:40.155Z,7.60
2019-04-11T11:04:16.119Z,7.60
2019-04-11T11:06:46.561Z,7.70
2019-04-11T11:09:17.662Z,7.90
2019-04-11T11:11:48.456Z,7.90
2019-04-11T11:14:34.658Z,7.80
2019-04-11T11:17:43.797Z,8.00
2019-04-11T11:20:03.855Z,7.70
2019-04-11T11:22:34.206Z,7.50
2019-04-11T11:25:20.261Z,7.20
2019-04-11T11:27:50.302Z,7.20
2019-04-11T11:30:39.800Z,7.20
2019-04-11T11:33:09.942Z,7.00
2019-04-11T11:35:49.988Z,7.10
2019-04-11T11:38:26.184Z,7.00
2019-04-11T11:41:05.864Z,7.10
2019-04-11T11:43:35.259Z,7.20
2019-04-11T11:46:14.156Z,7.30
2019-04-11T11:48:48.727Z,7.40
2019-04-11T11:51:25.632Z,7.40
2019-04-11T11:53:53.679Z,7.40
2019-04-11T11:56:22.098Z,7.50
2019-04-11T11:59:07.325Z,7.50
2019-04-11T12:01:43.290Z,7.60
2019-04-11T12:04:26.169Z,7.60
2019-04-11T12:07:01.670Z,7.50
2019-04-11T12:09:44.715Z,7.30
2019-04-11T12:12:31.751Z,7.50
2019-04-11T12:15:14.193Z,7.40
2019-04-11T12:17:59.633Z,7.30
2019-04-11T12:20:47.622Z,7.40
2019-04-11T12:23:17.926Z,7.40
2019-04-11T12:25:47.456Z,7.20
2019-04-11T12:28:36.198Z,7.40
2019-04-11T12:31:09.243Z,7.50
2019-04-11T12:33:39.531Z,7.30
2019-04-11T12:36:09.890Z,7.30
2019-04-11T12:38:57.893Z,7.20
2019-04-11T12:41:27.983Z,7.20
2019-04-11T12:44:06.462Z,7.20
2019-04-11T12:46:54.429Z,7.10
2019-04-11T12:49:24.489Z,7.00
2019-04-11T12:52:10.503Z,7.00
2019-04-11T12:54:43.307Z,7.00
2019-04-11T12:57:29.523Z,7.00
2019-04-11T13:00:05.331Z,6.90
2019-04-11T13:02:35.497Z,6.90
2019-04-11T13:05:07.615Z,7.00
2019-04-11T13:07:37.694Z,6.90
2019-04-11T13:10:10.835Z,7.00
2019-04-11T13:12:52.729Z,7.00
2019-04-11T13:15:22.836Z,7.00
2019-04-11T13:17:55.844Z,6.80
2019-04-11T13:20:41.691Z,6.70
2019-04-11T13:23:26.836Z,6.80
2019-04-11T13:26:11.828Z,6.90
2019-04-11T13:28:41.907Z,6.90
2019-04-11T13:31:28.260Z,7.00
2019-04-11T13:33:58.351Z,7.20
2019-04-11T13:36:28.440Z,7.10
2019-04-11T13:38:56.913Z,7.30
2019-04-11T13:41:44.859Z,7.20
2019-04-11T13:44:14.448Z,7.10
2019-04-11T13:46:50.522Z,7.10
2019-04-11T13:49:29.549Z,7.20
2019-04-11T13:52:15.689Z,7.20
2019-04-11T13:54:46.165Z,7.20
2019-04-11T13:57:25.036Z,7.10
2019-04-11T14:00:01.143Z,7.00
2019-04-11T14:02:37.077Z,7.00
2019-04-11T14:05:10.886Z,7.10
2019-04-11T14:07:40.331Z,7.10
2019-04-11T14:10:10.384Z,7.00
2019-04-11T14:12:38.808Z,7.00
2019-04-11T14:15:09.164Z,6.80
2019-04-11T14:17:41.603Z,6.80
2019-04-11T14:20:29.577Z,6.80
2019-04-11T14:23:04.808Z,6.70
2019-04-11T14:25:51.367Z,6.70
2019-04-11T14:28:24.165Z,6.90
2019-04-11T14:31:09.982Z,6.90
2019-04-11T14:33:48.444Z,7.00
2019-04-11T14:36:34.539Z,6.90
2019-04-11T14:39:04.854Z,6.90
2019-04-11T14:41:50.073Z,6.80
2019-04-11T14:44:18.657Z,6.80
2019-04-11T14:46:54.495Z,6.80
2019-04-11T14:49:23.142Z,6.90
2019-04-11T14:52:01.724Z,6.80
2019-04-11T14:54:31.791Z,6.80
2019-04-11T14:57:01.900Z,6.90
2019-04-11T14:59:37.772Z,6.80
2019-04-11T15:02:07.879Z,6.90
2019-04-11T15:04:46.872Z,6.90
2019-04-11T15:07:17.175Z,6.70
2019-04-11T15:09:47.342Z,6.80
2019-04-11T15:12:26.466Z,6.80
2019-04-11T15:15:12.909Z,6.80
2019-04-11T15:17:42.129Z,6.70
2019-04-11T15:20:33.915Z,6.70
2019-04-11T15:23:01.715Z,6.70
2019-04-11T15:25:40.553Z,6.70
2019-04-11T15:28:12.581Z,6.70
2019-04-11T15:30:48.367Z,6.60
2019-04-11T15:33:16.904Z,6.50
2019-04-11T15:35:47.074Z,6.60
2019-04-11T15:38:33.203Z,6.50
2019-04-11T15:41:03.515Z,6.60
2019-04-11T15:43:49.586Z,6.50
2019-04-11T15:46:25.647Z,6.50
2019-04-11T15:48:55.730Z,6.50
2019-04-11T15:51:35.140Z,6.30
2019-04-11T15:54:14.394Z,6.40
2019-04-11T15:56:53.783Z,6.20
2019-04-11T15:59:38.648Z,6.20
2019-04-11T16:02:11.676Z,6.30
2019-04-11T16:04:47.462Z,6.20
2019-04-11T16:07:37.334Z,6.20
2019-04-11T16:10:07.365Z,6.20
2019-04-11T16:12:46.304Z,6.20
2019-04-11T16:15:18.832Z,6.20
2019-04-11T16:18:04.967Z,6.10
2019-04-11T16:20:33.441Z,6.10
2019-04-11T16:23:06.404Z,6.10
2019-04-11T16:25:34.868Z,6.10
2019-04-11T16:28:17.094Z,6.20
2019-04-11T16:30:47.403Z,6.10
2019-04-11T16:33:17.500Z,6.10
2019-04-11T16:35:47.581Z,6.10
2019-04-11T16:38:33.756Z,6.20
2019-04-11T16:41:23.740Z,6.10
2019-04-11T16:43:55.321Z,6.10
2019-04-11T16:46:41.194Z,6.20
2019-04-11T16:49:09.676Z,6.10
2019-04-11T16:51:38.157Z,5.90
2019-04-11T16:54:09.579Z,5.90
2019-04-11T16:56:36.823Z,5.90
2019-04-11T16:59:05.244Z,5.90
2019-04-11T17:01:33.692Z,5.80
2019-04-11T17:04:02.169Z,5.80
2019-04-11T17:06:37.980Z,5.80
2019-04-11T17:09:17.928Z,5.70
2019-04-11T17:11:46.372Z,5.80
2019-04-11T17:14:14.971Z,5.70
2019-04-11T17:16:43.441Z,5.70
2019-04-11T17:19:11.884Z,5.70
2019-04-11T17:21:43.578Z,5.70
2019-04-11T17:24:10.499Z,5.70
2019-04-11T17:26:38.941Z,5.60
2019-04-11T17:29:07.379Z,5.70
2019-04-11T17:31:35.830Z,5.70
2019-04-11T17:34:05.610Z,5.70
2019-04-11T17:36:34.216Z,5.70
2019-04-11T17:39:06.754Z,5.70
2019-04-11T17:41:32.928Z,5.70
2019-04-11T17:44:01.349Z,5.80
2019-04-11T17:46:29.815Z,5.70
2019-04-11T17:48:58.296Z,5.70
2019-04-11T17:51:26.757Z,5.60
2019-04-11T17:53:55.698Z,5.60
2019-04-11T17:56:25.478Z,5.60
2019-04-11T17:58:57.710Z,5.70
2019-04-11T18:01:24.545Z,5.60
2019-04-11T18:03:53.076Z,5.60
2019-04-11T18:06:21.548Z,5.60
2019-04-11T18:08:51.583Z,5.60
2019-04-11T18:11:20.137Z,5.50
2019-04-11T18:13:48.617Z,5.50
2019-04-11T18:16:17.107Z,5.40
2019-04-11T18:18:45.549Z,5.40
2019-04-11T18:21:13.991Z,5.40
2019-04-11T18:23:42.444Z,5.30
2019-04-11T18:26:10.883Z,5.30
2019-04-11T18:28:39.385Z,5.30
2019-04-11T18:31:07.847Z,5.20
2019-04-11T18:33:36.316Z,5.20
2019-04-11T18:36:05.791Z,5.20
2019-04-11T18:38:34.304Z,5.10
2019-04-11T18:41:02.724Z,5.20
2019-04-11T18:43:31.235Z,5.10
2019-04-11T18:45:59.856Z,5.00
2019-04-11T18:48:28.409Z,5.10
2019-04-11T18:50:56.840Z,5.10
2019-04-11T18:53:25.296Z,5.00
2019-04-11T18:55:53.721Z,5.00
2019-04-11T18:58:22.191Z,5.00
2019-04-11T19:00:50.694Z,5.00
2019-04-11T19:03:19.303Z,5.00
2019-04-11T19:05:47.773Z,5.00
2019-04-11T19:08:16.461Z,5.00
2019-04-11T19:10:45.996Z,5.00
2019-04-11T19:13:16.978Z,5.00
2019-04-11T19:15:46.237Z,5.00
2019-04-11T19:18:16.354Z,4.90
2019-04-11T19:20:49.670Z,4.90
2019-04-11T19:23:15.804Z,4.90
2019-04-11T19:25:45.327Z,4.90
2019-04-11T19:28:13.812Z,4.90
2019-04-11T19:30:42.564Z,4.90
2019-04-11T19:33:11.304Z,4.90
2019-04-11T19:35:41.721Z,4.90
2019-04-11T19:38:12.389Z,4.90
2019-04-11T19:40:41.306Z,4.90
2019-04-11T19:43:09.816Z,5.50
2019-04-11T19:45:38.274Z,5.50
2019-04-11T19:48:06.704Z,5.20
2019-04-11T19:50:35.191Z,5.10
2019-04-11T19:53:03.672Z,4.90
2019-04-11T19:55:48.561Z,4.80
2019-04-11T19:58:18.936Z,4.80
2019-04-11T20:00:47.642Z,4.80
2019-04-11T20:03:17.628Z,4.80
2019-04-11T20:05:46.099Z,4.80
2019-04-11T20:08:15.479Z,4.80
2019-04-11T20:10:43.948Z,4.70
2019-04-11T20:13:12.504Z,4.70
2019-04-11T20:15:42.502Z,4.70
2019-04-11T20:18:11.188Z,4.70
2019-04-11T20:20:39.621Z,4.70
2019-04-11T20:23:10.482Z,4.70
2019-04-11T20:25:38.269Z,4.70
2019-04-11T20:28:06.732Z,4.70
2019-04-11T20:30:35.195Z,4.70
2019-04-11T20:33:03.803Z,4.70
